Time,TemperatureF,DewpointF,PressureIn,WindDirection,WindDirectionDegrees,WindSpeedMPH,WindSpeedGustMPH,Humidity,HourlyPrecipIn,Conditions,Clouds,dailyrainin,SoftwareType,DateUTC
2013-12-24 00:01:00,40.7,26.2,30.36,NNW,346,3.0,4.0,56,0.00,,,0.00,WUHU216DAVISVP2,2013-12-24 08:01:00,
2013-12-24 00:06:00,40.1,25.7,30.36,NNW,346,2.0,4.0,56,0.00,,,0.00,WUHU216DAVISVP2,2013-12-24 08:06:00,
2013-12-24 00:12:00,39.9,26.4,30.36,NNW,346,4.0,6.0,58,0.00,,,0.00,WUHU216DAVISVP2,2013-12-24 08:12:00,
2013-12-24 00:17:00,40.2,26.2,30.36,NNW,346,5.0,6.0,57,0.00,,,0.00,WUHU216DAVISVP2,2013-12-24 08:17:00,
2013-12-24 00:22:00,39.7,26.2,30.35,NNW,346,5.0,6.0,58,0.00,,,0.00,WUHU216DAVISVP2,2013-12-24 08:22:00,
2013-12-24 00:27:00,39.9,26.4,30.35,NNW,346,2.0,6.0,58,0.00,,,0.00,WUHU216DAVISVP2,2013-12-24 08:27:00,
2013-12-24 00:32:00,39.9,25.9,30.35,NNW,346,0.0,6.0,57,0.00,,,0.00,WUHU216DAVISVP2,2013-12-24 08:32:00,
2013-12-24 00:37:00,39.2,26.1,30.35,NNW,346,0.0,6.0,59,0.00,,,0.00,WUHU216DAVISVP2,2013-12-24 08:37:00,
2013-12-24 00:42:00,38.6,25.9,30.34,NNW,346,1.0,5.0,60,0.00,,,0.00,WUHU216DAVISVP2,2013-12-24 08:42:00,
2013-12-24 00:47:00,39.3,26.6,30.34,NNW,346,5.0,6.0,60,0.00,,,0.00,WUHU216DAVISVP2,2013-12-24 08:47:00,
2013-12-24 00:52:00,39.8,26.3,30.34,NNW,346,4.0,6.0,58,0.00,,,0.00,WUHU216DAVISVP2,2013-12-24 08:52:00,
2013-12-24 00:57:00,39.6,26.1,30.34,NNW,346,2.0,6.0,58,0.00,,,0.00,WUHU216DAVISVP2,2013-12-24 08:57:00,
2013-12-24 01:02:00,39.5,26.4,30.34,NNW,346,4.0,6.0,59,0.00,,,0.00,WUHU216DAVISVP2,2013-12-24 09:02:00,
2013-12-24 01:07:00,39.4,25.9,30.34,NNW,346,2.0,6.0,58,0.00,,,0.00,WUHU216DAVISVP2,2013-12-24 09:07:00,
2013-12-24 01:12:00,39.2,26.1,30.34,NNW,346,2.0,6.0,59,0.00,,,0.00,WUHU216DAVISVP2,2013-12-24 09:12:00,
2013-12-24 01:17:00,39.2,26.5,30.34,NNW,346,2.0,6.0,60,0.00,,,0.00,WUHU216DAVISVP2,2013-12-24 09:17:00,
2013-12-24 01:22:00,39.7,26.1,30.34,NNW,346,2.0,6.0,58,0.00,,,0.00,WUHU216DAVISVP2,2013-12-24 09:22:00,
2013-12-24 01:27:00,39.4,26.3,30.34,NNW,346,3.0,5.0,59,0.00,,,0.00,WUHU216DAVISVP2,2013-12-24 09:27:00,
2013-12-24 01:32:00,39.8,26.7,30.34,NNW,346,2.0,6.0,59,0.00,,,0.00,WUHU216DAVISVP2,2013-12-24 09:32:00,
2013-12-24 01:37:00,39.9,26.4,30.34,NNW,346,5.0,6.0,58,0.00,,,0.00,WUHU216DAVISVP2,2013-12-24 09:37:00,
2013-12-24 01:42:00,40.4,26.8,30.34,NNW,346,4.0,6.0,58,0.00,,,0.00,WUHU216DAVISVP2,2013-12-24 09:42:00,
2013-12-24 01:47:00,39.5,26.0,30.34,NNW,337,5.0,7.0,58,0.00,,,0.00,WUHU216DAVISVP2,2013-12-24 09:47:00,
2013-12-24 01:56:00,39.7,26.6,30.34,NNW,337,2.0,7.0,59,0.00,,,0.00,WUHU216DAVISVP2,2013-12-24 09:56:00,
2013-12-24 02:01:00,39.7,26.2,30.34,NNW,337,3.0,6.0,58,0.00,,,0.00,WUHU216DAVISVP2,2013-12-24 10:01:00,
2013-12-24 02:06:00,39.7,26.6,30.34,NNW,337,1.0,6.0,59,0.00,,,0.00,WUHU216DAVISVP2,2013-12-24 10:06:00,
2013-12-24 02:11:00,38.8,24.9,30.34,NNW,337,2.0,5.0,57,0.00,,,0.00,WUHU216DAVISVP2,2013-12-24 10:11:00,
2013-12-24 02:16:00,37.6,25.8,30.34,NNW,337,2.0,5.0,62,0.00,,,0.00,WUHU216DAVISVP2,2013-12-24 10:16:00,
2013-12-24 02:22:00,37.9,25.7,30.33,NNW,337,3.0,5.0,61,0.00,,,0.00,WUHU216DAVISVP2,2013-12-24 10:22:00,
2013-12-24 02:27:00,38.4,26.6,30.33,NNW,337,3.0,5.0,62,0.00,,,0.00,WUHU216DAVISVP2,2013-12-24 10:27:00,
2013-12-24 02:32:00,39.2,26.5,30.33,NNW,337,6.0,6.0,60,0.00,,,0.00,WUHU216DAVISVP2,2013-12-24 10:32:00,
2013-12-24 02:37:00,39.7,26.6,30.33,NNW,336,4.0,6.0,59,0.00,,,0.00,WUHU216DAVISVP2,2013-12-24 10:37:00,
2013-12-24 02:42:00,39.5,26.0,30.33,NNW,336,0.0,6.0,58,0.00,,,0.00,WUHU216DAVISVP2,2013-12-24 10:42:00,
2013-12-24 02:47:00,38.4,25.8,30.33,NNW,336,2.0,6.0,60,0.00,,,0.00,WUHU216DAVISVP2,2013-12-24 10:47:00,
2013-12-24 02:52:00,38.3,26.5,30.33,NNW,336,1.0,6.0,62,0.00,,,0.00,WUHU216DAVISVP2,2013-12-24 10:52:00,
2013-12-24 02:57:00,38.6,26.4,30.33,NNW,336,0.0,5.0,61,0.00,,,0.00,WUHU216DAVISVP2,2013-12-24 10:57:00,
2013-12-24 03:02:00,38.0,25.8,30.33,NNW,336,2.0,3.0,61,0.00,,,0.00,WUHU216DAVISVP2,2013-12-24 11:02:00,
2013-12-24 03:07:00,37.7,25.5,30.33,NNW,336,3.0,5.0,61,0.00,,,0.00,WUHU216DAVISVP2,2013-12-24 11:07:00,
2013-12-24 03:12:00,37.0,25.6,30.33,NNW,336,3.0,5.0,63,0.00,,,0.00,WUHU216DAVISVP2,2013-12-24 11:12:00,
2013-12-24 03:17:00,37.1,26.1,30.32,NNW,336,3.0,5.0,64,0.00,,,0.00,WUHU216DAVISVP2,2013-12-24 11:17:00,
2013-12-24 03:22:00,37.8,26.3,30.32,NNW,336,3.0,5.0,63,0.00,,,0.00,WUHU216DAVISVP2,2013-12-24 11:22:00,
2013-12-24 03:27:00,38.4,26.1,30.33,NNW,336,4.0,5.0,61,0.00,,,0.00,WUHU216DAVISVP2,2013-12-24 11:27:00,
2013-12-24 03:32:00,37.7,25.5,30.32,NNW,336,2.0,5.0,61,0.00,,,0.00,WUHU216DAVISVP2,2013-12-24 11:32:00,
2013-12-24 03:37:00,36.8,24.7,30.32,NNW,336,0.0,5.0,61,0.00,,,0.00,WUHU216DAVISVP2,2013-12-24 11:37:00,
2013-12-24 03:42:00,36.3,25.4,30.32,NNW,336,0.0,5.0,64,0.00,,,0.00,WUHU216DAVISVP2,2013-12-24 11:42:00,
2013-12-24 03:48:00,36.4,25.8,30.32,NNW,336,3.0,4.0,65,0.00,,,0.00,WUHU216DAVISVP2,2013-12-24 11:48:00,
2013-12-24 03:53:00,36.9,25.9,30.32,NNW,336,3.0,5.0,64,0.00,,,0.00,WUHU216DAVISVP2,2013-12-24 11:53:00,
2013-12-24 03:58:00,38.0,27.0,30.32,NNW,336,2.0,5.0,64,0.00,,,0.00,WUHU216DAVISVP2,2013-12-24 11:58:00,
2013-12-24 04:03:00,37.7,25.1,30.32,NNW,336,2.0,5.0,60,0.00,,,0.00,WUHU216DAVISVP2,2013-12-24 12:03:00,
2013-12-24 04:08:00,36.0,24.6,30.32,NNW,336,3.0,5.0,63,0.00,,,0.00,WUHU216DAVISVP2,2013-12-24 12:08:00,
2013-12-24 04:13:00,35.9,25.3,30.32,NNW,336,3.0,5.0,65,0.00,,,0.00,WUHU216DAVISVP2,2013-12-24 12:13:00,
2013-12-24 04:18:00,36.9,26.2,30.31,NNW,336,3.0,5.0,65,0.00,,,0.00,WUHU216DAVISVP2,2013-12-24 12:18:00,
2013-12-24 04:23:00,36.5,25.2,30.31,NNW,336,2.0,5.0,63,0.00,,,0.00,WUHU216DAVISVP2,2013-12-24 12:23:00,
2013-12-24 04:28:00,36.4,26.2,30.31,NNW,336,0.0,5.0,66,0.00,,,0.00,WUHU216DAVISVP2,2013-12-24 12:28:00,
2013-12-24 04:33:00,36.4,25.8,30.31,NNW,336,2.0,5.0,65,0.00,,,0.00,WUHU216DAVISVP2,2013-12-24 12:33:00,
2013-12-24 04:38:00,36.9,26.7,30.31,NNW,336,1.0,5.0,66,0.00,,,0.00,WUHU216DAVISVP2,2013-12-24 12:38:00,
2013-12-24 04:43:00,37.2,26.2,30.32,NNW,336,3.0,4.0,64,0.00,,,0.00,WUHU216DAVISVP2,2013-12-24 12:43:00,
2013-12-24 04:48:00,36.4,25.1,30.32,NNW,336,2.0,4.0,63,0.00,,,0.00,WUHU216DAVISVP2,2013-12-24 12:48:00,
2013-12-24 04:53:00,35.7,24.8,30.31,NNW,336,0.0,4.0,64,0.00,,,0.00,WUHU216DAVISVP2,2013-12-24 12:53:00,
2013-12-24 04:58:00,35.3,24.8,30.31,NNW,336,3.0,4.0,65,0.00,,,0.00,WUHU216DAVISVP2,2013-12-24 12:58:00,
2013-12-24 05:03:00,36.9,27.0,30.31,NNW,336,3.0,4.0,67,0.00,,,0.00,WUHU216DAVISVP2,2013-12-24 13:03:00,
2013-12-24 05:08:00,37.7,26.3,30.32,NNW,336,3.0,4.0,63,0.00,,,0.00,WUHU216DAVISVP2,2013-12-24 13:08:00,
2013-12-24 05:14:00,38.0,25.8,30.32,NNW,336,1.0,4.0,61,0.00,,,0.00,WUHU216DAVISVP2,2013-12-24 13:14:00,
2013-12-24 05:19:00,37.2,25.4,30.32,NNW,336,2.0,4.0,62,0.00,,,0.00,WUHU216DAVISVP2,2013-12-24 13:19:00,
2013-12-24 05:24:00,36.9,25.9,30.31,NNW,336,1.0,4.0,64,0.00,,,0.00,WUHU216DAVISVP2,2013-12-24 13:24:00,
2013-12-24 05:29:00,37.0,26.0,30.32,NNW,336,4.0,5.0,64,0.00,,,0.00,WUHU216DAVISVP2,2013-12-24 13:29:00,
2013-12-24 05:34:00,36.9,25.5,30.32,NNW,336,2.0,5.0,63,0.00,,,0.00,WUHU216DAVISVP2,2013-12-24 13:34:00,
2013-12-24 05:39:00,36.4,25.8,30.32,NNW,336,2.0,5.0,65,0.00,,,0.00,WUHU216DAVISVP2,2013-12-24 13:39:00,
2013-12-24 05:44:00,36.4,25.8,30.32,NNW,336,2.0,5.0,65,0.00,,,0.00,WUHU216DAVISVP2,2013-12-24 13:44:00,
2013-12-24 05:49:00,36.3,25.7,30.32,NNW,336,2.0,5.0,65,0.00,,,0.00,WUHU216DAVISVP2,2013-12-24 13:49:00,
2013-12-24 05:54:00,36.1,25.5,30.32,NNW,336,0.0,5.0,65,0.00,,,0.00,WUHU216DAVISVP2,2013-12-24 13:54:00,
2013-12-24 05:59:00,36.5,26.7,30.32,NNW,336,4.0,6.0,67,0.00,,,0.00,WUHU216DAVISVP2,2013-12-24 13:59:00,
2013-12-24 06:04:00,37.6,27.0,30.32,NNW,336,2.0,6.0,65,0.00,,,0.00,WUHU216DAVISVP2,2013-12-24 14:04:00,
2013-12-24 06:09:00,37.1,26.1,30.32,NNW,336,3.0,6.0,64,0.00,,,0.00,WUHU216DAVISVP2,2013-12-24 14:09:00,
2013-12-24 06:14:00,37.5,26.9,30.32,NNW,336,4.0,6.0,65,0.00,,,0.00,WUHU216DAVISVP2,2013-12-24 14:14:00,
2013-12-24 06:19:00,37.1,25.3,30.32,NNW,336,1.0,6.0,62,0.00,,,0.00,WUHU216DAVISVP2,2013-12-24 14:19:00,
2013-12-24 06:24:00,36.6,26.4,30.32,NNW,336,1.0,6.0,66,0.00,,,0.00,WUHU216DAVISVP2,2013-12-24 14:24:00,
2013-12-24 06:29:00,35.9,25.3,30.32,NNW,336,3.0,6.0,65,0.00,,,0.00,WUHU216DAVISVP2,2013-12-24 14:29:00,
2013-12-24 06:34:00,36.3,25.7,30.33,NNW,336,2.0,4.0,65,0.00,,,0.00,WUHU216DAVISVP2,2013-12-24 14:34:00,
2013-12-24 06:39:00,36.0,25.8,30.33,NNW,336,0.0,4.0,66,0.00,,,0.00,WUHU216DAVISVP2,2013-12-24 14:39:00,
2013-12-24 06:44:00,36.3,26.0,30.32,NNW,336,3.0,4.0,66,0.00,,,0.00,WUHU216DAVISVP2,2013-12-24 14:44:00,
2013-12-24 06:49:00,36.7,26.8,30.32,NNW,336,0.0,3.0,67,0.00,,,0.00,WUHU216DAVISVP2,2013-12-24 14:49:00,
2013-12-24 06:54:00,37.1,26.8,30.32,NNW,336,0.0,3.0,66,0.00,,,0.00,WUHU216DAVISVP2,2013-12-24 14:54:00,
2013-12-24 06:59:00,36.0,25.0,30.33,NNW,336,2.0,4.0,64,0.00,,,0.00,WUHU216DAVISVP2,2013-12-24 14:59:00,
2013-12-24 07:04:00,34.3,24.9,30.33,NNW,336,3.0,5.0,68,0.00,,,0.00,WUHU216DAVISVP2,2013-12-24 15:04:00,
2013-12-24 07:10:00,35.1,26.0,30.33,NNW,336,5.0,5.0,69,0.00,,,0.00,WUHU216DAVISVP2,2013-12-24 15:10:00,
2013-12-24 07:15:00,35.2,26.1,30.33,NNW,336,4.0,5.0,69,0.00,,,0.00,WUHU216DAVISVP2,2013-12-24 15:15:00,
2013-12-24 07:20:00,35.9,25.7,30.34,NNW,336,1.0,5.0,66,0.00,,,0.00,WUHU216DAVISVP2,2013-12-24 15:20:00,
2013-12-24 07:25:00,36.1,26.3,30.34,NNW,336,2.0,5.0,67,0.00,,,0.00,WUHU216DAVISVP2,2013-12-24 15:25:00,
2013-12-24 07:30:00,36.8,26.6,30.34,NNW,335,5.0,5.0,66,0.00,,,0.00,WUHU216DAVISVP2,2013-12-24 15:30:00,
2013-12-24 07:35:00,37.7,27.1,30.34,NNW,335,0.0,5.0,65,0.00,,,0.00,WUHU216DAVISVP2,2013-12-24 15:35:00,
2013-12-24 07:40:00,38.8,27.7,30.34,NNW,335,0.0,5.0,64,0.00,,,0.00,WUHU216DAVISVP2,2013-12-24 15:40:00,
2013-12-24 07:45:00,39.7,27.7,30.34,NNW,335,1.0,5.0,62,0.00,,,0.00,WUHU216DAVISVP2,2013-12-24 15:45:00,
2013-12-24 07:50:00,40.7,27.9,30.34,NNW,335,0.0,4.0,60,0.00,,,0.00,WUHU216DAVISVP2,2013-12-24 15:50:00,
2013-12-24 07:55:00,41.1,27.9,30.34,NNW,335,0.0,3.0,59,0.00,,,0.00,WUHU216DAVISVP2,2013-12-24 15:55:00,
2013-12-24 08:00:00,41.1,27.9,30.35,NNW,335,0.0,3.0,59,0.00,,,0.00,WUHU216DAVISVP2,2013-12-24 16:00:00,
2013-12-24 08:05:00,41.4,28.5,30.35,NNW,335,0.0,3.0,60,0.00,,,0.00,WUHU216DAVISVP2,2013-12-24 16:05:00,
2013-12-24 08:10:00,42.4,29.1,30.35,NNW,335,0.0,3.0,59,0.00,,,0.00,WUHU216DAVISVP2,2013-12-24 16:10:00,
2013-12-24 08:15:00,43.3,29.5,30.35,NNW,335,0.0,3.0,58,0.00,,,0.00,WUHU216DAVISVP2,2013-12-24 16:15:00,
2013-12-24 08:20:00,44.1,29.4,30.35,NNW,335,0.0,3.0,56,0.00,,,0.00,WUHU216DAVISVP2,2013-12-24 16:20:00,
2013-12-24 08:25:00,44.6,29.4,30.35,NNW,335,0.0,3.0,55,0.00,,,0.00,WUHU216DAVISVP2,2013-12-24 16:25:00,
2013-12-24 08:30:00,45.4,29.7,30.34,NNW,335,0.0,0.0,54,0.00,,,0.00,WUHU216DAVISVP2,2013-12-24 16:30:00,
2013-12-24 08:35:00,46.3,30.1,30.34,NNW,335,0.0,0.0,53,0.00,,,0.00,WUHU216DAVISVP2,2013-12-24 16:35:00,
2013-12-24 08:40:00,47.5,30.7,30.34,NNW,335,0.0,0.0,52,0.00,,,0.00,WUHU216DAVISVP2,2013-12-24 16:40:00,
2013-12-24 08:45:00,48.6,31.3,30.34,NNW,335,0.0,0.0,51,0.00,,,0.00,WUHU216DAVISVP2,2013-12-24 16:45:00,
2013-12-24 08:50:00,49.8,30.9,30.34,NNW,335,0.0,0.0,48,0.00,,,0.00,WUHU216DAVISVP2,2013-12-24 16:50:00,
2013-12-24 08:55:00,51.8,30.6,30.34,NNW,328,5.0,7.0,44,0.00,,,0.00,WUHU216DAVISVP2,2013-12-24 16:55:00,
2013-12-24 09:00:00,54.4,29.8,30.34,North,355,5.0,10.0,39,0.00,,,0.00,WUHU216DAVISVP2,2013-12-24 17:00:00,
2013-12-24 09:06:00,55.7,29.6,30.34,North,360,10.0,11.0,37,0.00,,,0.00,WUHU216DAVISVP2,2013-12-24 17:06:00,
2013-12-24 09:11:00,56.0,29.2,30.34,NNW,342,6.0,11.0,36,0.00,,,0.00,WUHU216DAVISVP2,2013-12-24 17:11:00,
2013-12-24 09:16:00,56.3,28.8,30.34,North,355,5.0,11.0,35,0.00,,,0.00,WUHU216DAVISVP2,2013-12-24 17:16:00,
2013-12-24 09:21:00,56.6,29.0,30.35,North,355,6.0,11.0,35,0.00,,,0.00,WUHU216DAVISVP2,2013-12-24 17:21:00,
2013-12-24 09:26:00,56.8,29.4,30.34,North,5,7.0,11.0,35,0.00,,,0.00,WUHU216DAVISVP2,2013-12-24 17:26:00,
2013-12-24 09:31:00,57.0,28.9,30.34,NNE,12,4.0,10.0,34,0.00,,,0.00,WUHU216DAVISVP2,2013-12-24 17:31:00,
2013-12-24 09:36:00,57.2,29.6,30.34,NNE,12,0.0,10.0,35,0.00,,,0.00,WUHU216DAVISVP2,2013-12-24 17:36:00,
2013-12-24 09:41:00,57.3,28.9,30.34,NNE,19,7.0,10.0,34,0.00,,,0.00,WUHU216DAVISVP2,2013-12-24 17:41:00,
2013-12-24 09:46:00,56.7,29.1,30.34,East,85,5.0,10.0,35,0.00,,,0.00,WUHU216DAVISVP2,2013-12-24 17:46:00,
2013-12-24 09:51:00,56.1,29.3,30.34,East,85,6.0,10.0,36,0.00,,,0.00,WUHU216DAVISVP2,2013-12-24 17:51:00,
2013-12-24 09:56:00,55.3,29.3,30.34,East,85,2.0,10.0,37,0.00,,,0.00,WUHU216DAVISVP2,2013-12-24 17:56:00,
2013-12-24 10:01:00,55.2,29.2,30.34,East,85,6.0,7.0,37,0.00,,,0.00,WUHU216DAVISVP2,2013-12-24 18:01:00,
2013-12-24 10:06:00,55.1,29.1,30.34,East,91,5.0,7.0,37,0.00,,,0.00,WUHU216DAVISVP2,2013-12-24 18:06:00,
2013-12-24 10:11:00,55.1,29.1,30.34,ESE,104,3.0,9.0,37,0.00,,,0.00,WUHU216DAVISVP2,2013-12-24 18:11:00,
2013-12-24 10:16:00,55.6,29.5,30.34,SSE,150,5.0,9.0,37,0.00,,,0.00,WUHU216DAVISVP2,2013-12-24 18:16:00,
2013-12-24 10:21:00,55.8,29.0,30.33,SSE,160,6.0,9.0,36,0.00,,,0.00,WUHU216DAVISVP2,2013-12-24 18:21:00,
2013-12-24 10:26:00,55.8,29.0,30.33,SSE,160,4.0,8.0,36,0.00,,,0.00,WUHU216DAVISVP2,2013-12-24 18:26:00,
2013-12-24 10:31:00,56.2,29.4,30.33,SSE,161,4.0,8.0,36,0.00,,,0.00,WUHU216DAVISVP2,2013-12-24 18:31:00,
2013-12-24 10:36:00,56.9,29.3,30.33,SSE,161,1.0,8.0,35,0.00,,,0.00,WUHU216DAVISVP2,2013-12-24 18:36:00,
2013-12-24 10:41:00,57.7,30.0,30.33,SSE,161,2.0,8.0,35,0.00,,,0.00,WUHU216DAVISVP2,2013-12-24 18:41:00,
2013-12-24 10:46:00,58.1,29.1,30.32,SSE,161,4.0,6.0,33,0.00,,,0.00,WUHU216DAVISVP2,2013-12-24 18:46:00,
2013-12-24 10:51:00,58.0,29.6,30.32,SSE,161,4.0,6.0,34,0.00,,,0.00,WUHU216DAVISVP2,2013-12-24 18:51:00,
2013-12-24 10:57:00,58.0,28.8,30.32,SSE,161,5.0,6.0,33,0.00,,,0.00,WUHU216DAVISVP2,2013-12-24 18:57:00,
2013-12-24 11:02:00,58.1,28.9,30.32,SSE,161,6.0,7.0,33,0.00,,,0.00,WUHU216DAVISVP2,2013-12-24 19:02:00,
2013-12-24 11:07:00,58.4,29.4,30.31,SSE,161,4.0,7.0,33,0.00,,,0.00,WUHU216DAVISVP2,2013-12-24 19:07:00,
2013-12-24 11:12:00,58.8,29.5,30.31,SSE,161,4.0,7.0,33,0.00,,,0.00,WUHU216DAVISVP2,2013-12-24 19:12:00,
2013-12-24 11:17:00,58.9,29.6,30.30,SSE,161,3.0,7.0,33,0.00,,,0.00,WUHU216DAVISVP2,2013-12-24 19:17:00,
2013-12-24 11:22:00,58.7,29.4,30.30,SSE,161,5.0,8.0,33,0.00,,,0.00,WUHU216DAVISVP2,2013-12-24 19:22:00,
2013-12-24 11:27:00,59.0,28.9,30.29,SSE,161,4.0,8.0,32,0.00,,,0.00,WUHU216DAVISVP2,2013-12-24 19:27:00,
2013-12-24 11:32:00,59.3,28.4,30.29,SSE,161,1.0,8.0,31,0.00,,,0.00,WUHU216DAVISVP2,2013-12-24 19:32:00,
2013-12-24 11:37:00,59.9,29.0,30.29,SSE,162,7.0,7.0,31,0.00,,,0.00,WUHU216DAVISVP2,2013-12-24 19:37:00,
2013-12-24 11:42:00,60.1,29.1,30.29,SSE,162,5.0,8.0,31,0.00,,,0.00,WUHU216DAVISVP2,2013-12-24 19:42:00,
2013-12-24 11:47:00,60.3,29.5,30.29,SSE,162,6.0,8.0,31,0.00,,,0.00,WUHU216DAVISVP2,2013-12-24 19:47:00,
2013-12-24 11:52:00,60.5,29.7,30.28,SSE,162,3.0,8.0,31,0.00,,,0.00,WUHU216DAVISVP2,2013-12-24 19:52:00,
2013-12-24 11:58:00,60.7,28.9,30.28,SSE,162,4.0,7.0,30,0.00,,,0.00,WUHU216DAVISVP2,2013-12-24 19:58:00,
2013-12-24 12:08:00,61.1,28.6,30.27,SSE,163,4.0,7.0,29,0.00,,,0.00,WUHU216DAVISVP2,2013-12-24 20:08:00,
2013-12-24 12:19:00,61.4,29.5,30.26,SE,146,5.0,7.0,30,0.00,,,0.00,WUHU216DAVISVP2,2013-12-24 20:19:00,
2013-12-24 12:30:00,62.1,28.6,30.26,SE,140,3.0,6.0,28,0.00,,,0.00,WUHU216DAVISVP2,2013-12-24 20:30:00,
2013-12-24 12:40:00,62.5,28.8,30.25,SE,124,6.0,6.0,28,0.00,,,0.00,WUHU216DAVISVP2,2013-12-24 20:40:00,
2013-12-24 12:52:00,62.9,28.2,30.24,SE,138,3.0,7.0,27,0.00,,,0.00,WUHU216DAVISVP2,2013-12-24 20:52:00,
2013-12-24 13:03:00,62.6,28.0,30.24,SE,136,4.0,7.0,27,0.00,,,0.00,WUHU216DAVISVP2,2013-12-24 21:03:00,
2013-12-24 13:13:00,62.6,28.0,30.23,SE,138,5.0,8.0,27,0.00,,,0.00,WUHU216DAVISVP2,2013-12-24 21:13:00,
2013-12-24 13:24:00,62.6,28.0,30.23,SE,138,6.0,8.0,27,0.00,,,0.00,WUHU216DAVISVP2,2013-12-24 21:24:00,
2013-12-24 13:35:00,62.4,27.8,30.23,SE,137,3.0,9.0,27,0.00,,,0.00,WUHU216DAVISVP2,2013-12-24 21:35:00,
2013-12-24 13:46:00,62.9,27.5,30.23,SE,141,3.0,8.0,26,0.00,,,0.00,WUHU216DAVISVP2,2013-12-24 21:46:00,
2013-12-24 13:58:00,62.9,27.3,30.22,SSE,154,4.0,7.0,26,0.00,,,0.00,WUHU216DAVISVP2,2013-12-24 21:58:00,
2013-12-24 14:08:00,63.4,26.8,30.22,SSE,155,4.0,7.0,25,0.00,,,0.00,WUHU216DAVISVP2,2013-12-24 22:08:00,
2013-12-24 14:13:00,63.4,27.7,30.22,South,169,4.0,9.0,26,0.00,,,0.00,WUHU216DAVISVP2,2013-12-24 22:13:00,
2013-12-24 14:18:00,63.4,27.7,30.22,South,169,5.0,9.0,26,0.00,,,0.00,WUHU216DAVISVP2,2013-12-24 22:18:00,
2013-12-24 14:23:00,63.2,26.8,30.22,South,169,4.0,9.0,25,0.00,,,0.00,WUHU216DAVISVP2,2013-12-24 22:23:00,
2013-12-24 14:28:00,63.1,26.6,30.23,South,169,4.0,9.0,25,0.00,,,0.00,WUHU216DAVISVP2,2013-12-24 22:28:00,
2013-12-24 14:33:00,63.3,26.7,30.23,South,169,3.0,7.0,25,0.00,,,0.00,WUHU216DAVISVP2,2013-12-24 22:33:00,
2013-12-24 14:38:00,63.5,26.9,30.22,South,169,2.0,7.0,25,0.00,,,0.00,WUHU216DAVISVP2,2013-12-24 22:38:00,
2013-12-24 14:43:00,63.7,27.2,30.22,South,169,2.0,5.0,25,0.00,,,0.00,WUHU216DAVISVP2,2013-12-24 22:43:00,
2013-12-24 14:48:00,63.9,26.3,30.23,South,169,0.0,5.0,24,0.00,,,0.00,WUHU216DAVISVP2,2013-12-24 22:48:00,
2013-12-24 14:53:00,64.2,26.5,30.23,South,169,1.0,5.0,24,0.00,,,0.00,WUHU216DAVISVP2,2013-12-24 22:53:00,
2013-12-24 14:58:00,64.4,27.7,30.23,South,169,0.0,5.0,25,0.00,,,0.00,WUHU216DAVISVP2,2013-12-24 22:58:00,
2013-12-24 15:03:00,64.5,26.8,30.23,South,169,1.0,4.0,24,0.00,,,0.00,WUHU216DAVISVP2,2013-12-24 23:03:00,
2013-12-24 15:09:00,64.5,26.8,30.23,South,169,3.0,3.0,24,0.00,,,0.00,WUHU216DAVISVP2,2013-12-24 23:09:00,
2013-12-24 15:14:00,64.2,26.5,30.23,South,169,1.0,3.0,24,0.00,,,0.00,WUHU216DAVISVP2,2013-12-24 23:14:00,
2013-12-24 15:19:00,64.4,27.7,30.23,South,169,3.0,3.0,25,0.00,,,0.00,WUHU216DAVISVP2,2013-12-24 23:19:00,
2013-12-24 15:24:00,64.1,27.4,30.23,South,169,0.0,3.0,25,0.00,,,0.00,WUHU216DAVISVP2,2013-12-24 23:24:00,
2013-12-24 15:29:00,64.2,27.5,30.23,South,169,1.0,4.0,25,0.00,,,0.00,WUHU216DAVISVP2,2013-12-24 23:29:00,
2013-12-24 15:34:00,64.4,26.7,30.23,South,169,2.0,4.0,24,0.00,,,0.00,WUHU216DAVISVP2,2013-12-24 23:34:00,
2013-12-24 15:39:00,64.3,26.6,30.23,South,169,4.0,4.0,24,0.00,,,0.00,WUHU216DAVISVP2,2013-12-24 23:39:00,
2013-12-24 15:44:00,64.2,27.5,30.24,South,169,4.0,5.0,25,0.00,,,0.00,WUHU216DAVISVP2,2013-12-24 23:44:00,
2013-12-24 15:49:00,64.0,27.3,30.24,South,169,3.0,5.0,25,0.00,,,0.00,WUHU216DAVISVP2,2013-12-24 23:49:00,
2013-12-24 15:54:00,64.0,27.3,30.24,South,169,0.0,5.0,25,0.00,,,0.00,WUHU216DAVISVP2,2013-12-24 23:54:00,
2013-12-24 15:59:00,64.0,27.3,30.23,South,169,2.0,5.0,25,0.00,,,0.00,WUHU216DAVISVP2,2013-12-24 23:59:00,
2013-12-24 16:04:00,64.4,27.7,30.23,South,169,0.0,5.0,25,0.00,,,0.00,WUHU216DAVISVP2,2013-12-25 00:04:00,
2013-12-24 16:09:00,64.1,27.4,30.24,South,169,0.0,3.0,25,0.00,,,0.00,WUHU216DAVISVP2,2013-12-25 00:09:00,
2013-12-24 16:14:00,62.9,26.4,30.24,South,169,0.0,3.0,25,0.00,,,0.00,WUHU216DAVISVP2,2013-12-25 00:14:00,
2013-12-24 16:19:00,61.2,26.8,30.23,South,169,0.0,1.0,27,0.00,,,0.00,WUHU216DAVISVP2,2013-12-25 00:19:00,
2013-12-24 16:24:00,59.8,26.4,30.24,South,169,0.0,1.0,28,0.00,,,0.00,WUHU216DAVISVP2,2013-12-25 00:24:00,
2013-12-24 16:29:00,58.2,25.9,30.24,South,169,0.0,1.0,29,0.00,,,0.00,WUHU216DAVISVP2,2013-12-25 00:29:00,
2013-12-24 16:34:00,57.5,26.1,30.23,South,169,0.0,0.0,30,0.00,,,0.00,WUHU216DAVISVP2,2013-12-25 00:34:00,
2013-12-24 16:39:00,56.4,25.3,30.24,South,169,1.0,2.0,30,0.00,,,0.00,WUHU216DAVISVP2,2013-12-25 00:39:00,
2013-12-24 16:44:00,55.3,25.1,30.24,South,169,3.0,4.0,31,0.00,,,0.00,WUHU216DAVISVP2,2013-12-25 00:44:00,
2013-12-24 16:49:00,54.5,24.2,30.24,South,169,3.0,5.0,31,0.00,,,0.00,WUHU216DAVISVP2,2013-12-25 00:49:00,
2013-12-24 16:54:00,54.5,24.2,30.24,South,169,5.0,5.0,31,0.00,,,0.00,WUHU216DAVISVP2,2013-12-25 00:54:00,
2013-12-24 16:59:00,53.6,23.5,30.24,South,169,7.0,7.0,31,0.00,,,0.00,WUHU216DAVISVP2,2013-12-25 00:59:00,
2013-12-24 17:06:00,52.3,23.8,30.25,South,169,5.0,8.0,33,0.00,,,0.00,WUHU216DAVISVP2,2013-12-25 01:06:00,
2013-12-24 17:16:00,51.3,23.6,30.25,South,169,3.0,9.0,34,0.00,,,0.00,WUHU216DAVISVP2,2013-12-25 01:16:00,
2013-12-24 17:27:00,49.8,23.0,30.25,SSW,208,5.0,9.0,35,0.00,,,0.00,WUHU216DAVISVP2,2013-12-25 01:27:00,
2013-12-24 17:38:00,50.5,23.6,30.26,NNW,346,10.0,10.0,35,0.00,,,0.00,WUHU216DAVISVP2,2013-12-25 01:38:00,
2013-12-24 17:58:00,49.6,22.8,30.26,NNW,346,5.0,10.0,35,0.00,,,0.00,WUHU216DAVISVP2,2013-12-25 01:58:00,
2013-12-24 18:03:00,49.8,23.0,30.26,NNW,347,5.0,8.0,35,0.00,,,0.00,WUHU216DAVISVP2,2013-12-25 02:03:00,
2013-12-24 18:08:00,49.5,22.7,30.26,NNW,347,7.0,9.0,35,0.00,,,0.00,WUHU216DAVISVP2,2013-12-25 02:08:00,
2013-12-24 18:13:00,48.9,22.9,30.26,NNW,346,6.0,9.0,36,0.00,,,0.00,WUHU216DAVISVP2,2013-12-25 02:13:00,
2013-12-24 18:18:00,48.9,23.1,30.26,NNW,344,3.0,9.0,36,0.00,,,0.00,WUHU216DAVISVP2,2013-12-25 02:18:00,
2013-12-24 18:23:00,49.1,23.3,30.27,NNW,344,5.0,9.0,36,0.00,,,0.00,WUHU216DAVISVP2,2013-12-25 02:23:00,
2013-12-24 18:28:00,49.3,23.4,30.27,NNW,348,6.0,8.0,36,0.00,,,0.00,WUHU216DAVISVP2,2013-12-25 02:28:00,
2013-12-24 18:34:00,49.2,23.1,30.27,NNW,348,1.0,8.0,36,0.00,,,0.00,WUHU216DAVISVP2,2013-12-25 02:34:00,
2013-12-24 18:39:00,47.4,22.2,30.27,NNW,348,2.0,8.0,37,0.00,,,0.00,WUHU216DAVISVP2,2013-12-25 02:39:00,
2013-12-24 18:44:00,46.2,22.4,30.27,NNW,348,5.0,8.0,39,0.00,,,0.00,WUHU216DAVISVP2,2013-12-25 02:44:00,
2013-12-24 18:49:00,46.6,23.4,30.27,NNW,344,6.0,7.0,40,0.00,,,0.00,WUHU216DAVISVP2,2013-12-25 02:49:00,
2013-12-24 18:54:00,46.7,22.8,30.28,NNW,336,5.0,8.0,39,0.00,,,0.00,WUHU216DAVISVP2,2013-12-25 02:54:00,
2013-12-24 18:59:00,46.4,22.6,30.28,NNW,336,2.0,8.0,39,0.00,,,0.00,WUHU216DAVISVP2,2013-12-25 02:59:00,
2013-12-24 19:04:00,45.9,22.7,30.28,NNW,334,6.0,8.0,40,0.00,,,0.00,WUHU216DAVISVP2,2013-12-25 03:04:00,
2013-12-24 19:09:00,46.0,22.8,30.28,NNW,334,4.0,9.0,40,0.00,,,0.00,WUHU216DAVISVP2,2013-12-25 03:09:00,
2013-12-24 19:15:00,46.6,23.4,30.28,NNW,334,4.0,9.0,40,0.00,,,0.00,WUHU216DAVISVP2,2013-12-25 03:15:00,
2013-12-24 19:25:00,45.1,22.6,30.28,NNW,334,0.0,7.0,41,0.00,,,0.00,WUHU216DAVISVP2,2013-12-25 03:25:00,
2013-12-24 19:36:00,46.1,22.9,30.28,NNW,335,4.0,6.0,40,0.00,,,0.00,WUHU216DAVISVP2,2013-12-25 03:36:00,
2013-12-24 19:47:00,45.3,22.2,30.28,NNW,336,3.0,8.0,40,0.00,,,0.00,WUHU216DAVISVP2,2013-12-25 03:47:00,
2013-12-24 19:59:00,46.0,23.4,30.28,NNW,341,6.0,8.0,41,0.00,,,0.00,WUHU216DAVISVP2,2013-12-25 03:59:00,
2013-12-24 20:04:00,46.1,22.9,30.28,NNW,341,2.0,7.0,40,0.00,,,0.00,WUHU216DAVISVP2,2013-12-25 04:04:00,
2013-12-24 20:09:00,45.8,23.2,30.29,NNW,341,4.0,7.0,41,0.00,,,0.00,WUHU216DAVISVP2,2013-12-25 04:09:00,
2013-12-24 20:14:00,46.1,22.9,30.29,NNW,341,3.0,7.0,40,0.00,,,0.00,WUHU216DAVISVP2,2013-12-25 04:14:00,
2013-12-24 20:19:00,45.9,23.3,30.29,NNW,341,3.0,5.0,41,0.00,,,0.00,WUHU216DAVISVP2,2013-12-25 04:19:00,
2013-12-24 20:24:00,45.8,23.2,30.29,NNW,341,6.0,6.0,41,0.00,,,0.00,WUHU216DAVISVP2,2013-12-25 04:24:00,
2013-12-24 20:29:00,45.9,23.3,30.28,NNW,341,4.0,6.0,41,0.00,,,0.00,WUHU216DAVISVP2,2013-12-25 04:29:00,
2013-12-24 20:34:00,45.8,23.2,30.29,NNW,341,5.0,6.0,41,0.00,,,0.00,WUHU216DAVISVP2,2013-12-25 04:34:00,
2013-12-24 20:39:00,45.5,23.0,30.29,NNW,341,4.0,6.0,41,0.00,,,0.00,WUHU216DAVISVP2,2013-12-25 04:39:00,
2013-12-24 20:44:00,45.4,23.5,30.29,NNW,341,4.0,6.0,42,0.00,,,0.00,WUHU216DAVISVP2,2013-12-25 04:44:00,
2013-12-24 20:49:00,45.1,23.3,30.29,NNW,342,1.0,6.0,42,0.00,,,0.00,WUHU216DAVISVP2,2013-12-25 04:49:00,
2013-12-24 20:54:00,44.3,23.2,30.29,NNW,342,3.0,6.0,43,0.00,,,0.00,WUHU216DAVISVP2,2013-12-25 04:54:00,
2013-12-24 20:59:00,44.2,23.5,30.30,NNW,341,5.0,7.0,44,0.00,,,0.00,WUHU216DAVISVP2,2013-12-25 04:59:00,
2013-12-24 21:04:00,44.4,23.1,30.30,NNW,341,4.0,7.0,43,0.00,,,0.00,WUHU216DAVISVP2,2013-12-25 05:04:00,
2013-12-24 21:09:00,45.0,23.7,30.30,NNW,341,4.0,7.0,43,0.00,,,0.00,WUHU216DAVISVP2,2013-12-25 05:09:00,
2013-12-24 21:14:00,44.7,23.4,30.30,NNW,341,2.0,7.0,43,0.00,,,0.00,WUHU216DAVISVP2,2013-12-25 05:14:00,
2013-12-24 21:19:00,43.7,23.2,30.30,NNW,341,3.0,6.0,44,0.00,,,0.00,WUHU216DAVISVP2,2013-12-25 05:19:00,
2013-12-24 21:24:00,44.0,23.9,30.30,NNW,341,2.0,5.0,45,0.00,,,0.00,WUHU216DAVISVP2,2013-12-25 05:24:00,
2013-12-24 21:29:00,43.8,23.7,30.30,NNW,341,2.0,4.0,45,0.00,,,0.00,WUHU216DAVISVP2,2013-12-25 05:29:00,
2013-12-24 21:34:00,44.7,24.5,30.30,NNW,341,5.0,5.0,45,0.00,,,0.00,WUHU216DAVISVP2,2013-12-25 05:34:00,
2013-12-24 21:39:00,44.9,23.6,30.31,NNW,341,3.0,6.0,43,0.00,,,0.00,WUHU216DAVISVP2,2013-12-25 05:39:00,
2013-12-24 21:44:00,44.0,23.5,30.31,NNW,341,3.0,6.0,44,0.00,,,0.00,WUHU216DAVISVP2,2013-12-25 05:44:00,
2013-12-24 21:49:00,43.7,23.7,30.31,NNW,341,3.0,6.0,45,0.00,,,0.00,WUHU216DAVISVP2,2013-12-25 05:49:00,
2013-12-24 21:55:00,43.3,23.2,30.31,NNW,341,6.0,6.0,45,0.00,,,0.00,WUHU216DAVISVP2,2013-12-25 05:55:00,
2013-12-24 22:00:00,41.6,22.8,30.31,NNW,341,5.0,6.0,47,0.00,,,0.00,WUHU216DAVISVP2,2013-12-25 06:00:00,
2013-12-24 22:05:00,42.4,23.5,30.31,NNW,341,4.0,6.0,47,0.00,,,0.00,WUHU216DAVISVP2,2013-12-25 06:05:00,
2013-12-24 22:10:00,43.1,23.1,30.31,NNW,341,4.0,6.0,45,0.00,,,0.00,WUHU216DAVISVP2,2013-12-25 06:10:00,
2013-12-24 22:15:00,42.5,23.7,30.32,NNW,338,3.0,6.0,47,0.00,,,0.00,WUHU216DAVISVP2,2013-12-25 06:15:00,
2013-12-24 22:20:00,42.9,24.0,30.32,NNW,338,1.0,6.0,47,0.00,,,0.00,WUHU216DAVISVP2,2013-12-25 06:20:00,
2013-12-24 22:25:00,42.1,23.7,30.32,NNW,338,6.0,6.0,48,0.00,,,0.00,WUHU216DAVISVP2,2013-12-25 06:25:00,
2013-12-24 22:30:00,42.4,24.5,30.32,NNW,337,6.0,6.0,49,0.00,,,0.00,WUHU216DAVISVP2,2013-12-25 06:30:00,
2013-12-24 22:35:00,44.3,25.2,30.32,NNW,336,5.0,8.0,47,0.00,,,0.00,WUHU216DAVISVP2,2013-12-25 06:35:00,
2013-12-24 22:40:00,44.3,24.2,30.32,NNW,336,3.0,8.0,45,0.00,,,0.00,WUHU216DAVISVP2,2013-12-25 06:40:00,
2013-12-24 22:45:00,44.1,24.6,30.32,NNW,336,4.0,8.0,46,0.00,,,0.00,WUHU216DAVISVP2,2013-12-25 06:45:00,
2013-12-24 22:50:00,43.5,24.1,30.32,NNW,335,4.0,8.0,46,0.00,,,0.00,WUHU216DAVISVP2,2013-12-25 06:50:00,
2013-12-24 22:55:00,42.6,24.2,30.33,NNW,335,3.0,6.0,48,0.00,,,0.00,WUHU216DAVISVP2,2013-12-25 06:55:00,
2013-12-24 23:00:00,43.0,24.6,30.32,NNW,335,3.0,6.0,48,0.00,,,0.00,WUHU216DAVISVP2,2013-12-25 07:00:00,
2013-12-24 23:05:00,43.8,25.8,30.33,NNW,335,3.0,6.0,49,0.00,,,0.00,WUHU216DAVISVP2,2013-12-25 07:05:00,
2013-12-24 23:10:00,44.7,25.6,30.33,NNW,335,5.0,6.0,47,0.00,,,0.00,WUHU216DAVISVP2,2013-12-25 07:10:00,
2013-12-24 23:15:00,44.9,24.7,30.33,NNW,335,5.0,6.0,45,0.00,,,0.00,WUHU216DAVISVP2,2013-12-25 07:15:00,
2013-12-24 23:20:00,44.3,25.2,30.33,NNW,335,4.0,6.0,47,0.00,,,0.00,WUHU216DAVISVP2,2013-12-25 07:20:00,
2013-12-24 23:25:00,44.1,25.1,30.33,NNW,333,4.0,7.0,47,0.00,,,0.00,WUHU216DAVISVP2,2013-12-25 07:25:00,
2013-12-24 23:30:00,43.4,24.9,30.33,NNW,333,2.0,7.0,48,0.00,,,0.00,WUHU216DAVISVP2,2013-12-25 07:30:00,
2013-12-24 23:35:00,43.6,25.1,30.33,NNW,333,4.0,7.0,48,0.00,,,0.00,WUHU216DAVISVP2,2013-12-25 07:35:00,
2013-12-24 23:40:00,44.5,25.9,30.33,NNW,332,5.0,7.0,48,0.00,,,0.00,WUHU216DAVISVP2,2013-12-25 07:40:00,
2013-12-24 23:45:00,44.3,24.2,30.33,NNW,331,2.0,7.0,45,0.00,,,0.00,WUHU216DAVISVP2,2013-12-25 07:45:00,
2013-12-24 23:50:00,42.5,24.6,30.33,NNW,331,6.0,7.0,49,0.00,,,0.00,WUHU216DAVISVP2,2013-12-25 07:50:00,
2013-12-24 23:55:00,42.4,25.5,30.33,NNW,330,6.0,7.0,51,0.00,,,0.00,WUHU216DAVISVP2,2013-12-25 07:55:00,